Time;durP1;ratioP1;P1;durP2;ratioP2;P2;SDS_P1;SDS_P2;PMS_P1;PMS_P2;Temp;Humidity;BMP_temperature;BMP_pressure;BME280_temperature;BME280_humidity;BME280_pressure;Samples;Min_cycle;Max_cycle;Signal;HPM_P1;HPM_P2
2024/01/10 05:06:20;;;;;;;;;63.50;51.50;;;;;;;;632333;39;10001027;-55
2024/01/10 05:12:23;;;;;;;;;53.25;49.50;;;;;;;;6493192;39;10635;-57
2024/01/10 08:05:44;;;;;;;;;66.25;51.75;;;;;;;;6402346;39;5000771;-62
2024/01/10 08:11:47;;;;;;;;;55.33;44.33;;;;;;;;6491908;31;8914;-63
2024/01/10 08:17:50;;;;;;;;;65.00;49.67;;;;;;;;6492863;31;8842;-60
2024/01/10 08:23:53;;;;;;;;;53.33;46.33;;;;;;;;6489788;39;8918;-61
2024/01/10 08:29:55;;;;;;;;;63.00;52.00;;;;;;;;6485162;31;8917;-61
2024/01/10 08:35:59;;;;;;;;;51.00;45.00;;;;;;;;6488625;46;9023;-62
2024/01/10 08:42:04;;;;;;;;;51.00;44.33;;;;;;;;6488146;39;8990;-62
2024/01/10 08:48:08;;;;;;;;;50.33;46.67;;;;;;;;6490981;39;8925;-62
2024/01/10 08:54:16;;;;;;;;;50.33;46.00;;;;;;;;6490083;39;8952;-61
2024/01/10 09:00:24;;;;;;;;;50.33;45.33;;;;;;;;6490817;39;8928;-63
2024/01/10 09:06:32;;;;;;;;;58.67;46.67;;;;;;;;6490307;39;8933;-63
2024/01/10 09:12:36;;;;;;;;;61.67;51.00;;;;;;;;6486558;31;8942;-62
2024/01/10 09:18:40;;;;;;;;;56.67;41.00;;;;;;;;6487650;46;8897;-61
2024/01/10 09:24:44;;;;;;;;;73.33;56.00;;;;;;;;6491128;31;8894;-61
2024/01/10 09:30:47;;;;;;;;;47.00;42.00;;;;;;;;6488588;31;9536;-63
2024/01/10 09:36:54;;;;;;;;;48.00;43.67;;;;;;;;6489080;39;9032;-61
2024/01/10 09:42:57;;;;;;;;;41.67;33.67;;;;;;;;6487287;39;8909;-63
2024/01/10 09:48:59;;;;;;;;;40.33;35.33;;;;;;;;6490206;31;8941;-63
2024/01/10 09:55:02;;;;;;;;;40.00;37.33;;;;;;;;6489274;46;8960;-64
2024/01/10 10:01:06;;;;;;;;;39.33;36.33;;;;;;;;6487886;39;8975;-62
2024/01/10 10:07:09;;;;;;;;;37.67;31.67;;;;;;;;6486796;39;8936;-58
2024/01/10 10:13:25;;;;;;;;;27.00;25.00;;;;;;;;6489360;39;9048;-60
2024/01/10 10:19:28;;;;;;;;;25.33;23.67;;;;;;;;6489820;46;8947;-61
2024/01/10 10:25:44;;;;;;;;;22.00;19.75;;;;;;;;6489158;39;8904;-62
2024/01/10 10:31:48;;;;;;;;;23.75;22.00;;;;;;;;6487015;47;9993;-61
2024/01/10 10:37:52;;;;;;;;;18.33;18.00;;;;;;;;6488190;39;9075;-61
2024/01/10 10:43:57;;;;;;;;;13.75;10.75;;;;;;;;6485870;39;8920;-62
2024/01/10 10:50:03;;;;;;;;;35.67;29.00;;;;;;;;6489952;46;8912;-62
2024/01/10 10:56:08;;;;;;;;;22.25;20.75;;;;;;;;6490258;39;8992;-62
2024/01/10 11:02:10;;;;;;;;;31.50;23.75;;;;;;;;6492827;31;8914;-61
2024/01/10 11:08:17;;;;;;;;;13.00;9.00;;;;;;;;6491535;39;8925;-62
2024/01/10 11:14:32;;;;;;;;;19.50;19.00;;;;;;;;6490245;31;8987;-62
2024/01/10 11:20:44;;;;;;;;;17.50;15.75;;;;;;;;6490856;46;8909;-64
2024/01/10 11:26:46;;;;;;;;;14.00;10.25;;;;;;;;6488411;39;8950;-64
2024/01/10 11:32:50;;;;;;;;;24.50;24.00;;;;;;;;6489907;39;8928;-60
2024/01/10 11:38:56;;;;;;;;;20.75;19.75;;;;;;;;6487191;46;8967;-61
2024/01/10 11:45:01;;;;;;;;;22.50;20.25;;;;;;;;6488264;39;8962;-61
2024/01/10 11:51:07;;;;;;;;;24.25;21.25;;;;;;;;6488366;31;8894;-60
2024/01/10 11:57:12;;;;;;;;;18.50;18.50;;;;;;;;6486874;31;9049;-62
2024/01/10 12:03:14;;;;;;;;;22.00;21.25;;;;;;;;6488138;31;9070;-61
2024/01/10 12:09:24;;;;;;;;;21.75;18.75;;;;;;;;6489031;39;9048;-61
2024/01/10 12:15:27;;;;;;;;;35.50;29.50;;;;;;;;6485060;39;8987;-62
2024/01/10 12:21:32;;;;;;;;;20.00;15.75;;;;;;;;6489762;31;9051;-62
2024/01/10 12:27:36;;;;;;;;;28.50;24.75;;;;;;;;6488780;39;9567;-61
2024/01/10 12:33:39;;;;;;;;;30.25;21.25;;;;;;;;6489899;31;8925;-64
2024/01/10 12:39:43;;;;;;;;;24.75;21.75;;;;;;;;6489914;39;9128;-62
2024/01/10 12:45:46;;;;;;;;;24.50;20.00;;;;;;;;6489994;39;8921;-61
2024/01/10 12:51:49;;;;;;;;;11.75;11.25;;;;;;;;6491278;46;8908;-63
2024/01/10 12:57:52;;;;;;;;;16.00;14.25;;;;;;;;6488925;31;8933;-62
2024/01/10 13:03:56;;;;;;;;;24.00;18.00;;;;;;;;6489317;46;8985;-63
2024/01/10 13:09:58;;;;;;;;;16.75;16.75;;;;;;;;6490075;39;8935;-62
2024/01/10 13:16:03;;;;;;;;;17.25;15.50;;;;;;;;6490004;39;8905;-64
2024/01/10 13:22:09;;;;;;;;;24.25;21.50;;;;;;;;6490181;31;9032;-63
2024/01/10 13:28:12;;;;;;;;;20.50;20.50;;;;;;;;6487336;46;8917;-62
2024/01/10 13:34:16;;;;;;;;;21.75;19.00;;;;;;;;6487306;31;8913;-64
2024/01/10 13:40:24;;;;;;;;;22.50;18.00;;;;;;;;6484599;46;9029;-62
2024/01/10 13:46:26;;;;;;;;;18.75;18.25;;;;;;;;6488177;39;8940;-61
2024/01/10 13:52:35;;;;;;;;;23.75;21.00;;;;;;;;6484139;46;8935;-60
2024/01/10 13:58:38;;;;;;;;;23.25;17.00;;;;;;;;6485340;39;8942;-64
2024/01/10 14:04:41;;;;;;;;;23.25;21.00;;;;;;;;6487466;46;8967;-62
2024/01/10 14:10:45;;;;;;;;;28.00;25.75;;;;;;;;6488663;39;8908;-63
2024/01/10 14:16:49;;;;;;;;;29.75;26.00;;;;;;;;6490494;31;8893;-64
2024/01/10 14:22:52;;;;;;;;;24.67;23.33;;;;;;;;6488685;39;8886;-62
2024/01/10 14:28:56;;;;;;;;;28.33;23.67;;;;;;;;6487456;39;8944;-64
2024/01/10 14:34:59;;;;;;;;;35.00;30.67;;;;;;;;6486368;47;9134;-61
2024/01/10 14:41:06;;;;;;;;;36.33;30.67;;;;;;;;6487575;47;8920;-61
2024/01/10 14:47:08;;;;;;;;;31.00;28.33;;;;;;;;6487862;47;8917;-60
2024/01/10 14:53:17;;;;;;;;;32.00;27.33;;;;;;;;6507355;36;9620;-61
2024/01/10 14:59:19;;;;;;;;;28.00;24.67;;;;;;;;6488742;39;8976;-61
2024/01/10 15:05:41;;;;;;;;;33.00;29.33;;;;;;;;6490174;39;8941;-64
2024/01/10 15:11:43;;;;;;;;;23.67;22.00;;;;;;;;6490160;39;9016;-63
2024/01/10 15:17:46;;;;;;;;;28.33;24.33;;;;;;;;6489357;39;8903;-61
2024/01/10 15:23:48;;;;;;;;;23.67;20.67;;;;;;;;6490073;39;8929;-62
2024/01/10 15:29:50;;;;;;;;;21.33;19.67;;;;;;;;6489475;39;9025;-61
2024/01/10 15:36:04;;;;;;;;;26.00;24.00;;;;;;;;6491308;46;8999;-62
2024/01/10 15:42:08;;;;;;;;;25.33;21.00;;;;;;;;6491703;39;9599;-61
2024/01/10 15:48:11;;;;;;;;;27.00;23.67;;;;;;;;6492160;39;9041;-60
2024/01/10 15:54:16;;;;;;;;;27.33;21.67;;;;;;;;6492519;39;9658;-63
2024/01/10 16:00:19;;;;;;;;;22.67;22.00;;;;;;;;6490868;39;8959;-61
2024/01/10 16:06:22;;;;;;;;;31.00;29.67;;;;;;;;6490775;46;8910;-64
2024/01/10 16:12:24;;;;;;;;;27.33;24.33;;;;;;;;6490300;39;9491;-61
2024/01/10 16:18:28;;;;;;;;;28.67;23.00;;;;;;;;6491315;39;8918;-62
2024/01/10 16:24:31;;;;;;;;;29.00;27.33;;;;;;;;6492317;39;9711;-62
2024/01/10 16:30:33;;;;;;;;;23.67;22.33;;;;;;;;6491229;46;8948;-62
2024/01/10 16:36:36;;;;;;;;;35.67;28.67;;;;;;;;6491732;39;8971;-61
2024/01/10 16:42:39;;;;;;;;;20.67;19.00;;;;;;;;6491649;39;8952;-62
2024/01/10 16:48:43;;;;;;;;;34.67;29.67;;;;;;;;6491398;31;8871;-62
2024/01/10 16:54:47;;;;;;;;;5.00;2.00;;;;;;;;6491197;39;8964;-63
2024/01/10 17:00:49;;;;;;;;;29.00;26.33;;;;;;;;6490026;39;9628;-61
2024/01/10 17:06:53;;;;;;;;;28.33;25.00;;;;;;;;6487028;46;8930;-60
2024/01/10 17:12:55;;;;;;;;;28.33;27.33;;;;;;;;6489305;46;8947;-64
2024/01/10 17:18:59;;;;;;;;;37.67;28.00;;;;;;;;6489841;31;8926;-61
2024/01/10 17:25:03;;;;;;;;;36.67;30.67;;;;;;;;6534442;36;8923;-62
2024/01/10 17:31:05;;;;;;;;;25.33;22.67;;;;;;;;6490201;31;8882;-63
2024/01/10 17:37:07;;;;;;;;;30.67;27.33;;;;;;;;6488140;31;8948;-61
2024/01/10 17:43:10;;;;;;;;;46.33;36.00;;;;;;;;6488719;39;8946;-61
2024/01/10 17:49:12;;;;;;;;;33.33;33.33;;;;;;;;6488987;46;9055;-62
2024/01/10 17:55:15;;;;;;;;;18.67;16.33;;;;;;;;6489092;31;8946;-62
2024/01/10 18:01:18;;;;;;;;;35.67;31.33;;;;;;;;6489077;46;8987;-61
2024/01/10 18:07:25;;;;;;;;;13.00;12.67;;;;;;;;6489522;39;9505;-61
2024/01/10 18:13:28;;;;;;;;;40.67;36.33;;;;;;;;6488635;46;8933;-62
2024/01/10 18:19:32;;;;;;;;;36.00;24.67;;;;;;;;6488735;39;8932;-62
2024/01/10 18:25:35;;;;;;;;;44.33;38.33;;;;;;;;6489915;39;9622;-61
2024/01/10 18:31:41;;;;;;;;;41.00;32.33;;;;;;;;6489383;46;8902;-62
2024/01/10 18:37:44;;;;;;;;;48.33;37.67;;;;;;;;6489796;47;8950;-60
2024/01/10 18:43:49;;;;;;;;;47.33;45.00;;;;;;;;6489827;39;9007;-57
2024/01/10 18:49:51;;;;;;;;;42.33;41.33;;;;;;;;6489580;39;8852;-59
2024/01/10 18:55:54;;;;;;;;;55.67;46.00;;;;;;;;6486836;39;8944;-56
2024/01/10 19:02:00;;;;;;;;;48.00;42.67;;;;;;;;6487801;39;8974;-60
2024/01/10 19:08:04;;;;;;;;;48.00;42.00;;;;;;;;6489830;46;8881;-58
2024/01/10 19:14:07;;;;;;;;;53.00;45.33;;;;;;;;6491334;39;9057;-57
2024/01/10 19:20:10;;;;;;;;;54.33;48.00;;;;;;;;6491172;39;8894;-58
2024/01/10 19:26:23;;;;;;;;;17.33;12.00;;;;;;;;6491245;39;8888;-58
2024/01/10 19:32:25;;;;;;;;;18.67;17.33;;;;;;;;6491522;39;8992;-58
2024/01/10 19:38:27;;;;;;;;;22.33;19.67;;;;;;;;6490481;31;8915;-56
2024/01/10 19:44:31;;;;;;;;;20.33;18.33;;;;;;;;6490818;39;8838;-58
2024/01/10 19:50:34;;;;;;;;;25.00;19.67;;;;;;;;6490695;46;9039;-59
2024/01/10 19:56:37;;;;;;;;;22.00;15.33;;;;;;;;6491370;39;8890;-56
2024/01/10 20:02:40;;;;;;;;;18.00;13.00;;;;;;;;6491382;39;8931;-59
2024/01/10 20:08:42;;;;;;;;;21.67;21.00;;;;;;;;6491151;39;8932;-56
2024/01/10 20:14:45;;;;;;;;;19.00;18.67;;;;;;;;6490575;39;8895;-58
2024/01/10 20:20:48;;;;;;;;;17.00;17.00;;;;;;;;6490942;31;8897;-56
2024/01/10 20:26:51;;;;;;;;;21.33;16.00;;;;;;;;6491645;39;8898;-61
2024/01/10 20:32:53;;;;;;;;;20.67;19.33;;;;;;;;6490402;46;8827;-57
2024/01/10 20:38:56;;;;;;;;;19.67;19.00;;;;;;;;6491106;31;8911;-60
2024/01/10 20:44:59;;;;;;;;;7.33;5.33;;;;;;;;6489598;39;9476;-58
2024/01/10 20:51:01;;;;;;;;;19.67;15.33;;;;;;;;6489627;46;8884;-59
2024/01/10 20:57:05;;;;;;;;;19.33;16.00;;;;;;;;6490303;46;9113;-58
2024/01/10 21:03:07;;;;;;;;;19.00;16.33;;;;;;;;6490425;39;8978;-59
2024/01/10 21:09:11;;;;;;;;;15.00;11.33;;;;;;;;6489771;46;8962;-60
2024/01/10 21:15:13;;;;;;;;;20.00;16.25;;;;;;;;6309378;31;10000864;-59
2024/01/10 21:21:18;;;;;;;;;22.00;17.33;;;;;;;;6491669;39;9491;-59
2024/01/10 21:27:21;;;;;;;;;22.33;21.00;;;;;;;;6490413;39;8895;-58
2024/01/10 21:33:23;;;;;;;;;17.00;13.33;;;;;;;;6489301;39;8893;-57
2024/01/10 21:39:26;;;;;;;;;23.33;18.67;;;;;;;;6490014;39;9375;-56
2024/01/10 21:45:28;;;;;;;;;19.00;19.00;;;;;;;;6489203;31;8917;-57
2024/01/10 21:51:34;;;;;;;;;18.67;16.00;;;;;;;;6490363;39;8906;-56
2024/01/10 21:57:36;;;;;;;;;18.33;18.33;;;;;;;;6489386;39;8910;-57
2024/01/10 22:03:39;;;;;;;;;13.00;12.00;;;;;;;;6490300;39;9563;-58
2024/01/10 22:09:41;;;;;;;;;43.00;33.50;;;;;;;;6490258;39;8882;-56
2024/01/10 22:15:43;;;;;;;;;63.75;49.00;;;;;;;;6488591;31;8911;-59
2024/01/10 22:21:46;;;;;;;;;51.50;48.00;;;;;;;;6490541;31;8941;-58
2024/01/10 22:27:48;;;;;;;;;14.33;14.33;;;;;;;;6489667;39;8888;-57
2024/01/10 22:33:51;;;;;;;;;15.67;15.67;;;;;;;;6488801;39;8874;-58
2024/01/10 22:39:53;;;;;;;;;16.67;16.00;;;;;;;;6489980;39;8903;-57
2024/01/10 22:45:58;;;;;;;;;14.67;13.67;;;;;;;;6487781;47;8851;-56
2024/01/10 22:52:00;;;;;;;;;61.00;45.50;;;;;;;;6489681;31;8883;-57
2024/01/10 22:58:03;;;;;;;;;60.00;48.75;;;;;;;;6488744;39;8910;-57
2024/01/10 23:04:05;;;;;;;;;57.00;49.75;;;;;;;;6489432;39;8907;-57
2024/01/10 23:10:08;;;;;;;;;51.75;45.00;;;;;;;;6489420;39;8909;-59
2024/01/10 23:16:10;;;;;;;;;60.75;46.50;;;;;;;;6489686;39;8906;-58
2024/01/10 23:22:14;;;;;;;;;61.75;48.75;;;;;;;;6488988;31;8862;-58
2024/01/10 23:28:16;;;;;;;;;63.75;51.75;;;;;;;;6488997;31;8878;-55
2024/01/10 23:34:18;;;;;;;;;66.50;50.50;;;;;;;;6489433;39;8941;-59
2024/01/10 23:40:24;;;;;;;;;17.00;15.00;;;;;;;;6489636;39;8966;-59
2024/01/10 23:46:26;;;;;;;;;60.25;50.00;;;;;;;;6488384;46;8842;-58
2024/01/10 23:52:30;;;;;;;;;61.25;51.25;;;;;;;;6487839;39;8883;-60
2024/01/10 23:58:33;;;;;;;;;45.25;42.00;;;;;;;;6490532;31;8938;-57
